createdAt,value
2022-10-25T00:00:00.211Z,100790
2022-10-25T00:05:00.184Z,100770
2022-10-25T00:10:00.194Z,100780
2022-10-25T00:15:00.186Z,100780
2022-10-25T00:20:00.205Z,100770
2022-10-25T00:25:00.214Z,100770
2022-10-25T00:30:00.221Z,100770
2022-10-25T00:35:00.236Z,100780
2022-10-25T00:40:00.211Z,100780
2022-10-25T00:45:00.194Z,100790
2022-10-25T00:50:00.212Z,100810
2022-10-25T00:55:00.187Z,100800
2022-10-25T01:00:00.209Z,100810
2022-10-25T01:05:00.214Z,100810
2022-10-25T01:10:00.188Z,100800
2022-10-25T01:15:00.184Z,100820
2022-10-25T01:20:00.197Z,100810
2022-10-25T01:25:00.231Z,100830
2022-10-25T01:30:00.199Z,100830
2022-10-25T01:35:00.217Z,100830
2022-10-25T01:40:00.183Z,100820
2022-10-25T01:45:00.191Z,100820
2022-10-25T01:50:00.194Z,100820
2022-10-25T01:55:00.215Z,100840
2022-10-25T02:00:00.206Z,100820
2022-10-25T02:05:00.224Z,100840
2022-10-25T02:10:00.274Z,100820
2022-10-25T02:15:00.170Z,100820
2022-10-25T02:20:00.206Z,100830
2022-10-25T02:25:00.187Z,100810
2022-10-25T02:30:00.204Z,100830
2022-10-25T02:35:00.274Z,100830
2022-10-25T02:40:00.205Z,100840
2022-10-25T02:45:00.215Z,100850
2022-10-25T02:50:00.192Z,100850
2022-10-25T02:55:00.196Z,100830
2022-10-25T03:00:00.339Z,100840
2022-10-25T03:05:00.224Z,100830
2022-10-25T03:10:00.273Z,100860
2022-10-25T03:15:00.487Z,100870
2022-10-25T03:20:00.211Z,100880
2022-10-25T03:25:00.276Z,100880
2022-10-25T03:30:00.209Z,100880
2022-10-25T03:35:00.235Z,100900
2022-10-25T03:40:00.230Z,100870
2022-10-25T03:45:00.246Z,100880
2022-10-25T03:50:00.200Z,100890
2022-10-25T03:55:00.191Z,100910
2022-10-25T04:00:00.285Z,100930
2022-10-25T04:05:00.213Z,100890
2022-10-25T04:10:02.739Z,100910
2022-10-25T04:15:00.205Z,100950
2022-10-25T04:20:00.201Z,100940
2022-10-25T04:25:00.203Z,100940
2022-10-25T04:30:00.266Z,100950
2022-10-25T04:35:00.201Z,100940
2022-10-25T04:40:00.200Z,100950
2022-10-25T04:45:00.226Z,100960
2022-10-25T04:50:00.209Z,100940
2022-10-25T04:55:00.205Z,100950
2022-10-25T05:00:00.257Z,100990
2022-10-25T05:05:00.221Z,100960
2022-10-25T05:10:00.214Z,100970
2022-10-25T05:15:00.207Z,100960
2022-10-25T05:20:00.237Z,100980
2022-10-25T05:25:00.218Z,100980
2022-10-25T05:30:00.229Z,100960
2022-10-25T05:35:00.267Z,100990
2022-10-25T05:40:00.222Z,100980
2022-10-25T05:45:00.220Z,100980
2022-10-25T05:50:00.223Z,100980
2022-10-25T05:55:00.208Z,101000
2022-10-25T06:00:00.240Z,101000
2022-10-25T06:05:00.218Z,101020
2022-10-25T06:10:00.390Z,101040
2022-10-25T06:15:00.219Z,101010
2022-10-25T06:20:00.180Z,101030
2022-10-25T06:25:00.188Z,101020
2022-10-25T06:30:00.243Z,101050
2022-10-25T06:35:00.227Z,101050
2022-10-25T06:40:00.212Z,101060
2022-10-25T06:45:00.177Z,101080
2022-10-25T06:50:00.284Z,101070
2022-10-25T06:55:00.227Z,101070
2022-10-25T07:05:00.221Z,101090
2022-10-25T07:10:00.209Z,101080
2022-10-25T07:15:00.222Z,101090
2022-10-25T07:20:00.184Z,101090
2022-10-25T07:25:00.251Z,101080
2022-10-25T07:30:00.221Z,101100
2022-10-25T07:35:00.535Z,101110
2022-10-25T07:40:00.251Z,101110
2022-10-25T07:45:00.252Z,101100
2022-10-25T07:50:00.195Z,101120
2022-10-25T07:55:00.251Z,101110
2022-10-25T08:00:00.213Z,101140
2022-10-25T08:05:00.241Z,101140
2022-10-25T08:10:00.202Z,101140
2022-10-25T08:15:00.178Z,101150
2022-10-25T08:20:00.207Z,101140
2022-10-25T08:25:00.209Z,101140
2022-10-25T08:30:00.191Z,101170
2022-10-25T08:35:00.174Z,101170
2022-10-25T08:40:00.176Z,101160
2022-10-25T08:45:00.179Z,101170
2022-10-25T08:50:00.178Z,101180
2022-10-25T08:55:03.285Z,101160
2022-10-25T09:00:00.217Z,101160
2022-10-25T09:05:00.207Z,101200
2022-10-25T09:10:00.202Z,101200
2022-10-25T09:15:00.207Z,101210
2022-10-25T09:20:00.246Z,101210
2022-10-25T09:25:00.200Z,101240
2022-10-25T09:30:03.779Z,101230
2022-10-25T09:35:00.194Z,101230
2022-10-25T09:40:00.227Z,101230
2022-10-25T09:45:00.227Z,101220
2022-10-25T09:50:00.209Z,101240
2022-10-25T09:55:00.268Z,101240
2022-10-25T10:00:00.210Z,101250
2022-10-25T10:05:00.200Z,101240
2022-10-25T10:10:00.237Z,101220
2022-10-25T10:15:00.252Z,101240
2022-10-25T10:20:00.205Z,101240
2022-10-25T10:25:00.200Z,101280
2022-10-25T10:30:00.245Z,101250
2022-10-25T10:35:00.236Z,101250
2022-10-25T10:40:00.190Z,101270
2022-10-25T10:45:00.202Z,101260
2022-10-25T10:50:00.194Z,101270
2022-10-25T10:55:00.217Z,101250
2022-10-25T11:00:00.231Z,101280
2022-10-25T11:05:00.234Z,101280
2022-10-25T11:10:00.214Z,101290
2022-10-25T11:15:00.205Z,101290
2022-10-25T11:20:00.217Z,101280
2022-10-25T11:25:00.228Z,101280
2022-10-25T11:30:00.211Z,101290
2022-10-25T11:35:00.218Z,101290
2022-10-25T11:40:00.195Z,101290
2022-10-25T11:45:00.200Z,101290
2022-10-25T11:50:00.196Z,101300
2022-10-25T11:55:00.215Z,101320
2022-10-25T12:00:00.236Z,101290
2022-10-25T12:05:00.260Z,101300
2022-10-25T12:10:00.197Z,101280
2022-10-25T12:15:00.250Z,101290
2022-10-25T12:20:00.225Z,101280
2022-10-25T12:25:00.190Z,101300
2022-10-25T12:30:00.233Z,101290
2022-10-25T12:35:00.228Z,101300
2022-10-25T12:40:00.212Z,101280
2022-10-25T12:45:00.196Z,101300
2022-10-25T12:50:00.208Z,101280
2022-10-25T12:55:00.190Z,101270
2022-10-25T13:00:00.246Z,101290
2022-10-25T13:05:00.190Z,101280
2022-10-25T13:10:00.196Z,101290
2022-10-25T13:15:00.228Z,101260
2022-10-25T13:20:00.203Z,101290
2022-10-25T13:25:00.207Z,101280
2022-10-25T13:30:00.368Z,101290
2022-10-25T13:35:00.196Z,101270
2022-10-25T13:40:00.205Z,101280
2022-10-25T13:45:00.222Z,101290
2022-10-25T13:50:00.195Z,101270
2022-10-25T13:55:00.200Z,101300
2022-10-25T14:00:00.304Z,101300
2022-10-25T14:05:00.204Z,101290
2022-10-25T14:10:00.202Z,101280
2022-10-25T14:15:00.216Z,101280
2022-10-25T14:20:00.317Z,101290
2022-10-25T14:25:00.201Z,101280
2022-10-25T14:30:00.219Z,101280
2022-10-25T14:35:00.198Z,101270
2022-10-25T14:40:00.249Z,101280
2022-10-25T14:45:00.208Z,101290
2022-10-25T14:50:00.331Z,101280
2022-10-25T14:55:00.199Z,101290
2022-10-25T15:00:00.524Z,101260
2022-10-25T15:05:00.213Z,101270
2022-10-25T15:10:00.472Z,101280
2022-10-25T15:15:00.205Z,101270
2022-10-25T15:20:00.376Z,101260
2022-10-25T15:25:00.222Z,101270
2022-10-25T15:30:00.271Z,101250
2022-10-25T15:35:00.194Z,101270
2022-10-25T15:40:00.197Z,101270
2022-10-25T15:45:00.204Z,101270
2022-10-25T15:50:00.205Z,101290
2022-10-25T15:55:00.189Z,101250
2022-10-25T16:00:00.211Z,101270
2022-10-25T16:05:00.211Z,101250
2022-10-25T16:10:00.232Z,101240
2022-10-25T16:15:00.258Z,101230
2022-10-25T16:20:00.195Z,101260
2022-10-25T16:25:00.225Z,101270
2022-10-25T16:30:00.357Z,101260
2022-10-25T16:35:00.196Z,101250
2022-10-25T16:40:00.200Z,101260
2022-10-25T16:45:00.232Z,101250
2022-10-25T16:50:00.201Z,101240
2022-10-25T16:55:00.203Z,101250
2022-10-25T17:00:00.200Z,101250
2022-10-25T17:05:00.209Z,101260
2022-10-25T17:10:00.262Z,101270
2022-10-25T17:15:00.293Z,101290
2022-10-25T17:20:00.205Z,101250
2022-10-25T17:25:00.233Z,101270
2022-10-25T17:30:00.212Z,101270
2022-10-25T17:35:00.232Z,101270
2022-10-25T17:40:00.198Z,101250
2022-10-25T17:45:00.226Z,101270
2022-10-25T17:50:00.193Z,101260
2022-10-25T17:55:00.191Z,101250
2022-10-25T18:00:00.203Z,101260
2022-10-25T18:05:20.151Z,101260
2022-10-25T18:10:00.189Z,101250
2022-10-25T18:15:00.191Z,101250
2022-10-25T18:20:00.206Z,101250
2022-10-25T18:25:00.229Z,101270
2022-10-25T18:30:00.231Z,101260
2022-10-25T18:35:00.209Z,101270
2022-10-25T18:40:00.214Z,101270
2022-10-25T18:45:00.196Z,101260
2022-10-25T18:50:00.203Z,101270
2022-10-25T18:55:00.211Z,101260
2022-10-25T19:00:00.255Z,101260
2022-10-25T19:05:00.325Z,101270
2022-10-25T19:10:00.232Z,101260
2022-10-25T19:15:00.235Z,101280
2022-10-25T19:20:00.191Z,101250
2022-10-25T19:25:00.387Z,101260
2022-10-25T19:30:00.230Z,101250
2022-10-25T20:00:00.291Z,101230
2022-10-25T20:05:00.291Z,101230
2022-10-25T20:10:00.207Z,101210
2022-10-25T20:15:00.337Z,101220
2022-10-25T20:20:00.199Z,101220
2022-10-25T20:25:00.190Z,101210
2022-10-25T20:30:00.240Z,101230
2022-10-25T20:35:00.294Z,101220
2022-10-25T20:40:00.199Z,101230
2022-10-25T20:45:00.290Z,101210
2022-10-25T20:50:00.208Z,101220
2022-10-25T20:55:00.297Z,101220
2022-10-25T21:00:00.212Z,101240
2022-10-25T21:05:00.249Z,101240
2022-10-25T21:10:00.210Z,101230
2022-10-25T21:15:00.223Z,101220
2022-10-25T21:20:00.234Z,101250
2022-10-25T21:25:00.264Z,101240
2022-10-25T21:30:00.233Z,101230
2022-10-25T21:35:00.214Z,101230
2022-10-25T21:40:00.209Z,101220
2022-10-25T21:45:00.204Z,101220
2022-10-25T21:50:00.222Z,101210
2022-10-25T21:55:00.207Z,101230
2022-10-25T22:00:00.222Z,101230
2022-10-25T22:05:00.203Z,101210
2022-10-25T22:10:00.249Z,101230
2022-10-25T22:15:00.200Z,101220
2022-10-25T22:20:00.210Z,101220
2022-10-25T22:25:00.197Z,101200
2022-10-25T22:30:00.262Z,101210
2022-10-25T22:35:00.219Z,101220
2022-10-25T22:40:00.186Z,101210
2022-10-25T22:45:00.191Z,101190
2022-10-25T22:50:00.211Z,101190
2022-10-25T22:55:00.227Z,101200
2022-10-25T23:00:00.209Z,101210
2022-10-25T23:05:00.188Z,101200
2022-10-25T23:10:00.201Z,101210
2022-10-25T23:15:00.213Z,101230
2022-10-25T23:20:00.231Z,101220
2022-10-25T23:25:00.210Z,101200
2022-10-25T23:30:00.233Z,101210
2022-10-25T23:35:00.195Z,101200
2022-10-25T23:40:00.194Z,101220
2022-10-25T23:45:00.202Z,101180
2022-10-25T23:50:00.199Z,101190
2022-10-25T23:55:00.198Z,101190
